logo
App data

Restaurant Empire II

The sequel to the widely popular Restaurant Empire game takes you further into the depths and delights of the culinary universe than ever before. Take part in an exciting world where the customers are fickle and the bounty in your cash register changes as quickly as their tastes.
Store | Hub | SteamDB | Site
Developer: Enlight Software Limited Publisher: Enlight Software Limited
Genre: Casual, Indie, Simulation, Strategy
Languages: English, French
Tags: Simulation (51), Management (46), Casual (36), Strategy (33), Indie (28), Economy (24)
Category: Single-player
Release date: May 27, 2009
Price: $4.99 75%
Old userscore: 65% Metascore: 64%
Owners: 50,000 .. 100,000
Followers: 789
Peak concurrent players yesterday: 14
Playtime total: 02:25 (average) 02:25 (median)

Steam Spy is still in beta, so expect major bugs.

Owners data:

Access restricted.

This feature is only available to users with special access rights. Sorry.

If you want to proceed, you need to register or log in first and then back Steam Spy on Patreon. Look for Indie or Pro pledge.

Don't forget to use the same email as on Steam Spy!

Audience in 2 weeks:

Access restricted.

This feature is only available to users with special access rights. Sorry.

If you want to proceed, you need to register or log in first and then back Steam Spy on Patreon. Look for Indie or Pro pledge.

Don't forget to use the same email as on Steam Spy!

Peak daily concurrent players:

CCU data courtesy of SteamDB. Used with permission.

Hourly concurrent players:

YouTube:

The views data is based on top 50 videos uploaded last week. Actual number of views might be more than the number shown.

The displayed number of videos uploaded yesterday is limited to 50, so if there were more videos uploaded, the number will still show 50.

If the game has commonly used word as its name (like "FEAR" or "Volume") its number of Youtube views might be wrong.

Games similar to this one:

# Game Release date
Price
Score rank
(Userscore / Metascore)
Owners
Players
Playtime (Median)
1 Stickmageddon Jun 27, 2017 $0.49N/A (N/A)0 .. 20,0000%00:00 (00:00)
2 Ninja Stealth 2 Jan 30, 2017 $0.99N/A (N/A)20,000 .. 50,00050%02:40 (02:40)
3 Dungeon Painter Studio Feb 26, 2017 $14.99N/A (N/A)20,000 .. 50,00033.33%02:39 (00:53)
4 Oik 2 Mar 28, 2017 $0.99N/A (N/A)20,000 .. 50,0000%00:00 (00:00)
5 CarX Drift Racing Online Nov 17, 2017 $14.99N/A (N/A)200,000 .. 500,0000%00:00 (00:00)
6 Pester Aug 21, 2015 $0.99N/A (N/A)100,000 .. 200,0000%00:00 (00:00)
7 Crash Drive 2 May 28, 2015 $1.49N/A (N/A)50,000 .. 100,0000%00:00 (00:00)
8 Unium Feb 3, 2015 $1.99N/A (N/A)0 .. 20,0000%00:00 (00:00)
9 Bob Was Hungry Aug 19, 2015 $9.99N/A (N/A)50,000 .. 100,0000%00:00 (00:00)
10 The Reject Demon: Toko Chapter 0 — Prelude May 9, 2015 $4.99N/A (N/A)20,000 .. 50,0000%00:00 (00:00)
11 Pixel Puzzles 2: Birds Feb 20, 2015 $9.99N/A (N/A)200,000 .. 500,0000%00:00 (00:00)
12 Cursed Sight Aug 3, 2015 $4.99N/A (N/A)0 .. 20,0000%00:00 (00:00)
13 Stay Alight Mar 2, 2015 $3.99N/A (N/A)50,000 .. 100,0000%00:00 (00:00)
14 Boss Monster Apr 27, 2016 N/AN/A (N/A)20,000 .. 50,0000%00:00 (00:00)
15 Astro Emporia Feb 2, 2015 $0.99N/A (N/A)20,000 .. 50,0000%00:00 (00:00)
16 Power of Love Jul 21, 2015 $0.99N/A (N/A)20,000 .. 50,0000%00:00 (00:00)
17 Streets of Chaos Jan 23, 2015 N/AN/A (N/A)100,000 .. 200,0000%00:00 (00:00)
18 Way of Gold and Steel Aug 17, 2015 $8.99N/A (N/A)20,000 .. 50,0000%00:00 (00:00)
19 Racecraft Mar 4, 2016 FreeN/A (N/A)20,000 .. 50,0000%00:00 (00:00)
20 HyperRogue Jan 16, 2015 $4.99N/A (N/A)20,000 .. 50,0000%00:00 (00:00)
21 Chip's Challenge 2 May 28, 2015 $4.99N/A (N/A)20,000 .. 50,0000%00:00 (00:00)
22 Pixel Survivors May 5, 2016 $3.99N/A (N/A)50,000 .. 100,0000%00:00 (00:00)
23 Gravi Oct 8, 2013 $4.99N/A (N/A)0 .. 20,0000%00:00 (00:00)
24 Blocks That Matter Aug 19, 2011 $4.99N/A (N/A/72%)200,000 .. 500,0000%00:00 (00:00)
25 Reach for the Sun May 6, 2013 $4.99N/A (N/A)20,000 .. 50,0000%00:00 (00:00)
26 Puzzler World 2 Oct 24, 2011 $4.99N/A (N/A)50,000 .. 100,0000%00:00 (00:00)
27 Crayon Physics Deluxe Jan 7, 2009 $19.99N/A (N/A/79%)500,000 .. 1,000,0000%00:00 (00:00)
28 Luxor Evolved Mar 1, 2012 $9.99N/A (N/A)50,000 .. 100,0000%00:00 (00:00)
29 Windosill May 26, 2009 $2.99N/A (N/A)100,000 .. 200,0000%00:00 (00:00)
30 Auditorium Feb 28, 2012 $6.99N/A (N/A)50,000 .. 100,0000%00:00 (00:00)
31 Quantz Sep 3, 2009 $9.99N/A (N/A/67%)20,000 .. 50,0000%00:00 (00:00)
32 Rigonauts Aug 7, 2012 $9.99N/A (N/A/60%)0 .. 20,0000%00:00 (00:00)
33 Luxor: 5th Passage Jan 25, 2011 $9.99N/A (N/A)50,000 .. 100,0000%00:00 (00:00)
34 Gateways Sep 13, 2012 $4.99N/A (N/A/72%)50,000 .. 100,0000%00:00 (00:00)
35 Glowfish Sep 30, 2011 $9.99N/A (N/A)20,000 .. 50,0000%00:00 (00:00)
36 Lunnye Devitsy Jul 1, 2009 $4.99N/A (N/A)20,000 .. 50,0000%00:00 (00:00)
37 Ancients of Ooga May 20, 2011 $9.99N/A (N/A)20,000 .. 50,0000%00:00 (00:00)
38 Soundodger+ Oct 11, 2013 $7.99N/A (N/A/78%)50,000 .. 100,0000%00:00 (00:00)
39 PixelJunk Eden Feb 2, 2012 $9.99N/A (N/A/81%)50,000 .. 100,0000%00:00 (00:00)
40 Collisions Jul 28, 2015 $3.99N/A (N/A)50,000 .. 100,0000%00:00 (00:00)
41 Koala Kids Jun 22, 2015 $1.99N/A (N/A)20,000 .. 50,0000%00:00 (00:00)
42 The Deletion Jul 30, 2015 $1.99N/A (N/A)20,000 .. 50,0000%00:00 (00:00)
43 Painters Guild Sep 1, 2015 $9.99N/A (N/A)20,000 .. 50,0000%00:00 (00:00)
44 Labyrinth Simulator Sep 21, 2015 $4.99N/A (N/A)0 .. 20,0000%00:00 (00:00)
45 Weapons Genius Jul 8, 2015 $6.99N/A (N/A)500,000 .. 1,000,0000%00:00 (00:00)
46 Lift It Jan 20, 2017 $4.99N/A (N/A)50,000 .. 100,00014.29%04:46 (01:35)
47 Job the Leprechaun Jul 31, 2015 $2.99N/A (N/A)20,000 .. 50,0000%00:00 (00:00)
48 Star Sky - ブルームーン Oct 23, 2015 $1.59N/A (N/A)0 .. 20,0000%00:00 (00:00)
49 Fantastic Contraption Apr 5, 2016 $19.99N/A (N/A)20,000 .. 50,0000%00:00 (00:00)
50 Cibele Nov 2, 2015 $8.99N/A (N/A/71%)50,000 .. 100,0000%00:00 (00:00)
51 Sentinel 4: Dark Star Aug 13, 2015 $6.99N/A (N/A)0 .. 20,0000%00:00 (00:00)
52 Herding Dog Jan 15, 2016 $1.99N/A (N/A)0 .. 20,0000%00:00 (00:00)
53 Asphyxia Aug 4, 2015 $5.99N/A (N/A)20,000 .. 50,0000%00:00 (00:00)
54 Space Drifters 2D Mar 28, 2016 $0.99N/A (N/A)20,000 .. 50,0000%00:00 (00:00)
55 Robot vs Birds Zombies Jul 23, 2015 $0.99N/A (N/A)500,000 .. 1,000,0000%00:00 (00:00)
56 Fate Tectonics Sep 9, 2015 $0.49N/A (N/A)20,000 .. 50,0000%00:00 (00:00)
57 RePete Mar 9, 2016 $1.99N/A (N/A)0 .. 20,0000%00:00 (00:00)
58 Swapperoo Dec 18, 2015 $4.99N/A (N/A)0 .. 20,0000%00:00 (00:00)
59 Caravanserail Mar 10, 2016 $2.99N/A (N/A)0 .. 20,0000%00:00 (00:00)
60 Mines of Mars Sep 10, 2018 $6.99N/A (N/A)0 .. 20,0000%00:00 (00:00)
61 Overload May 31, 2018 $29.99N/A (N/A/74%)20,000 .. 50,0000%00:00 (00:00)
62 BAD END Nov 25, 2015 $2.99N/A (N/A)0 .. 20,0000%00:00 (00:00)
63 Whirligig VR Media Player Apr 3, 2016 $3.99N/A (N/A)20,000 .. 50,0000%00:00 (00:00)
64 Goodnight Butcher Dec 18, 2015 $1.99N/A (N/A)20,000 .. 50,0000%00:00 (00:00)
65 Party Saboteurs: After Party Oct 20, 2016 $9.99N/A (N/A)0 .. 20,0000%00:00 (00:00)
66 Moonlight Feb 5, 2016 $4.99N/A (N/A)0 .. 20,00033.33%01:02 (00:31)
67 Burst Mar 14, 2016 N/AN/A (N/A)100,000 .. 200,0000%00:00 (00:00)
68 Surfingers Jan 27, 2016 $1.99N/A (N/A)50,000 .. 100,0000%00:00 (00:00)
69 [the Sequence] Mar 30, 2016 $1.99N/A (N/A)0 .. 20,0000%00:00 (00:00)
70 Until I Have You Apr 4, 2016 $13.99N/A (N/A/69%)20,000 .. 50,0000%00:00 (00:00)
71 JiPS Apr 19, 2016 $2.99N/A (N/A)20,000 .. 50,00014.29%05:02 (01:40)
72 Sophie's Curse Mar 16, 2016 $4.99N/A (N/A)50,000 .. 100,0000%00:00 (00:00)
73 Forgotten, Not Lost - A Kinetic Novel Apr 1, 2016 $1.99N/A (N/A)20,000 .. 50,0000%00:00 (00:00)
74 The Housewife Aug 25, 2016 $4.99N/A (N/A)200,000 .. 500,0000%00:00 (00:00)
75 Magma Tsunami Jun 1, 2016 $0.99N/A (N/A)200,000 .. 500,0000%00:00 (00:00)
76 StarFringe: Adversus Apr 5, 2016 $6.99N/A (N/A)50,000 .. 100,0000%00:00 (00:00)
77 Frog Climbers Oct 6, 2016 $1.74N/A (N/A)20,000 .. 50,0000%00:00 (00:00)
78 Melting Hearts: Our Love Will Grow 2 Apr 29, 2016 N/AN/A (N/A)20,000 .. 50,00033.33%01:46 (00:53)
79 Wolf Simulator Nov 16, 2016 $3.99N/A (N/A)100,000 .. 200,0000%00:00 (00:00)
80 Love in the Glen Jun 8, 2016 $5.99N/A (N/A)20,000 .. 50,0000%00:00 (00:00)
81 Color Syndrome Aug 1, 2016 $0.99N/A (N/A)50,000 .. 100,0000%00:00 (00:00)
82 One Last Chance Apr 7, 2016 $3.99N/A (N/A)20,000 .. 50,00020%01:38 (00:32)
83 Hide and Secret Treasure of the Ages Jun 17, 2016 $2.99N/A (N/A)20,000 .. 50,0000%00:00 (00:00)
84 Reptilian Rebellion Aug 7, 2016 $2.99N/A (N/A)20,000 .. 50,0000%00:00 (00:00)
85 Gravity Cat Jul 13, 2016 $2.99N/A (N/A)20,000 .. 50,0000%00:00 (00:00)
86 Townopolis Apr 27, 2016 $3.99N/A (N/A)20,000 .. 50,0000%00:00 (00:00)
87 12 Labours of Hercules V: Kids of Hellas (Platinum Edition) Jun 17, 2016 $2.99N/A (N/A)20,000 .. 50,0000%00:00 (00:00)
88 Autumn Sep 23, 2014 $2.99N/A (N/A)100,000 .. 200,0000%00:00 (00:00)
89 ConflictCraft Dec 8, 2016 $2.99N/A (N/A)20,000 .. 50,0000%00:00 (00:00)
90 The Dolls: Reborn May 25, 2016 $4.99N/A (N/A)20,000 .. 50,0000%00:00 (00:00)
91 Strata May 29, 2014 $7.99N/A (N/A)50,000 .. 100,0000%00:00 (00:00)
92 Girls Like Robots Feb 14, 2014 $6.99N/A (N/A)100,000 .. 200,0000%00:00 (00:00)
93 Sokobond Jul 21, 2014 $9.99N/A (N/A/82%)50,000 .. 100,0000%00:00 (00:00)
94 Farm for your Life Jun 5, 2013 $9.99N/A (N/A)50,000 .. 100,0000%00:00 (00:00)
95 Crazy Plant Shop Aug 4, 2014 $4.99N/A (N/A)20,000 .. 50,0000%00:00 (00:00)
96 Grapple Mar 9, 2015 $6.99N/A (N/A)20,000 .. 50,0000%00:00 (00:00)
97 Pressured Jul 18, 2014 $2.99N/A (N/A)200,000 .. 500,0000%00:00 (00:00)
98 Tribloos 2 Jan 12, 2013 $4.99N/A (N/A)100,000 .. 200,0000%00:00 (00:00)
99 The Floor is Jelly May 30, 2014 $9.99N/A (N/A/83%)20,000 .. 50,0000%00:00 (00:00)
100 On Rusty Trails Jun 13, 2016 $12.99N/A (N/A/77%)20,000 .. 50,0000%00:00 (00:00)
101 Spy Chameleon - RGB Agent Jun 11, 2014 $4.99N/A (N/A)20,000 .. 50,0000%00:00 (00:00)
102 Sportsfriends Dec 19, 2014 $14.99N/A (N/A)0 .. 20,0000%00:00 (00:00)
103 The Treasures of Montezuma 4 Oct 9, 2013 $6.99N/A (N/A)20,000 .. 50,0000%00:00 (00:00)
104 Rage Runner May 16, 2014 $0.99N/A (N/A)0 .. 20,0000%00:00 (00:00)
105 Particulars Nov 19, 2014 $5.99N/A (N/A/74%)20,000 .. 50,0000%00:00 (00:00)
106 Pretentious Game May 20, 2014 $1.99N/A (N/A)20,000 .. 50,0000%00:00 (00:00)
107 Dead Man's Draw Feb 6, 2014 $3.49N/A (N/A)20,000 .. 50,0000%00:00 (00:00)
108 Triangle Jan 30, 2017 $1.99N/A (N/A)100,000 .. 200,0000%00:00 (00:00)
109 Carrie's Order Up! Sep 12, 2016 $2.99N/A (N/A)0 .. 20,0000%00:00 (00:00)
110 Sig.NULL Sep 27, 2016 $3.99N/A (N/A)20,000 .. 50,0000%00:00 (00:00)
111 Kombine Oct 14, 2016 $0.99N/A (N/A)20,000 .. 50,0000%00:00 (00:00)
112 Strategy & Tactics: Dark Ages Aug 4, 2017 $14.99N/A (N/A)50,000 .. 100,0000%00:00 (00:00)
113 Luke Sidewalker Nov 25, 2016 $0.99N/A (N/A)50,000 .. 100,0000%00:00 (00:00)
114 The Shape Of Heart Oct 25, 2016 $2.99N/A (N/A)0 .. 20,0000%00:00 (00:00)
115 Bunny & Piggy Nov 30, 2016 $0.99N/A (N/A)50,000 .. 100,0000%00:00 (00:00)
116 Farm Life: Natures Adventure Aug 8, 2016 $0.99N/A (N/A)50,000 .. 100,0000%00:00 (00:00)
117 iREC Jan 16, 2017 FreeN/A (N/A)50,000 .. 100,0000%00:00 (00:00)
118 CrossWorlds: Escape Oct 12, 2016 $14.99N/A (N/A)0 .. 20,0000%00:00 (00:00)
119 Access Denied Dec 16, 2016 $2.99N/A (N/A)20,000 .. 50,0000%00:00 (00:00)
120 Mu Cartographer Aug 24, 2016 $4.99N/A (N/A)20,000 .. 50,0000%00:00 (00:00)
121 Satellite Repairman Feb 2, 2017 $3.99N/A (N/A)0 .. 20,000100%00:40 (00:40)
122 Dots eXtreme Sep 13, 2016 $1.99N/A (N/A)20,000 .. 50,0000%00:00 (00:00)
123 Winexy Jan 13, 2017 $0.99N/A (N/A)50,000 .. 100,0000%00:00 (00:00)
124 Timore 5 Aug 25, 2016 $7.99N/A (N/A)0 .. 20,0000%00:00 (00:00)
125 Hidden in Plain Sight Jul 16, 2014 $5.99N/A (N/A)20,000 .. 50,0000%00:00 (00:00)
126 1931: Scheherazade at the Library of Pergamum Mar 26, 2015 $14.99N/A (N/A)20,000 .. 50,0000%00:00 (00:00)
127 Super Lemonade Factory Mar 15, 2012 $3.99N/A (N/A)0 .. 20,0000%00:00 (00:00)
128 Goats on a Bridge Feb 6, 2015 $4.99N/A (N/A)50,000 .. 100,0000%00:00 (00:00)
129 Metrocide Oct 20, 2014 $12.99N/A (N/A/68%)50,000 .. 100,00033.33%01:46 (00:53)
130 Marble Duel Nov 12, 2015 $14.99N/A (N/A)50,000 .. 100,0000%00:00 (00:00)
131 A Good Snowman Is Hard To Build Feb 25, 2015 $9.99N/A (N/A)20,000 .. 50,0000%00:00 (00:00)
132 Castle Jan 7, 2015 $4.99N/A (N/A)50,000 .. 100,0000%00:00 (00:00)
133 Quantum Rush Champions Dec 4, 2014 $2.99N/A (N/A)20,000 .. 50,0000%00:00 (00:00)
134 Cubot Jan 8, 2015 $1.99N/A (N/A)20,000 .. 50,0000%00:00 (00:00)
135 Beyond Gravity Sep 23, 2014 $1.99N/A (N/A)20,000 .. 50,0000%00:00 (00:00)
136 Unhack Feb 20, 2014 $3.99N/A (N/A)20,000 .. 50,0000%00:00 (00:00)
137 Cosmonautica Jul 31, 2015 $9.99N/A (N/A)200,000 .. 500,0000%00:00 (00:00)
138 Cyto Jul 10, 2014 $3.99N/A (N/A)20,000 .. 50,0000%00:00 (00:00)
139 SinaRun Oct 26, 2015 $2.99N/A (N/A)20,000 .. 50,0000%00:00 (00:00)
140 The Counting Kingdom Aug 5, 2014 $6.99N/A (N/A)0 .. 20,0000%00:00 (00:00)
141 Letter Quest: Grimm's Journey Nov 20, 2014 $7.99N/A (N/A/73%)50,000 .. 100,0000%00:00 (00:00)

Tags over time:

Access restricted.

This feature is only available to users with special access rights. Sorry.

If you want to proceed, you need to register or log in first and then back Steam Spy on Patreon. Look for Indie or Pro pledge.

Don't forget to use the same email as on Steam Spy!

Owners of this game also own:

Access restricted.

This feature is only available to users with special access rights. Sorry.

If you want to proceed, you need to register or log in first and then back Steam Spy on Patreon. Look for Indie or Pro pledge.

Don't forget to use the same email as on Steam Spy!

Playtime distribution:

Access restricted.

This feature is only available to users with special access rights. Sorry.

If you want to proceed, you need to register or log in first and then back Steam Spy on Patreon. Look for Indie or Pro pledge.

Don't forget to use the same email as on Steam Spy!

Playtime (2 weeks):

Access restricted.

This feature is only available to users with special access rights. Sorry.

If you want to proceed, you need to register or log in first and then back Steam Spy on Patreon. Look for Indie or Pro pledge.

Don't forget to use the same email as on Steam Spy!

User reviews:

Login required.

Please register or log in to see this information.